Etusivu
METAR-TAF:

METAR-TAF

Lentoasemat :

Longyearbyen, Norja

Huippuvuorten lentoasema

Leveyspiiri: 78-15N, Pituuspiiri: 015-28E, korkeus merenpinnasta: 2 m

Tämänhetkinen sää

Tämä raportti tehtiin 45 minuuttia sitten, kello 21.50 UTC
Tuuli 8 kn idästä/kaakosta
Lämpötila 2°C
Kosteus 75%
Ilmanpaine 1026 hPa
Näkyvyys 10 km tai enemmän
Hajonneita pilviä 2500 ft:n korkeudessa

METAR: ENSB 192150Z 12008KT 9999 BKN025 02/M02 Q1026 RMK WIND 1400FT 13011KT

Aika: 00:35 (22:35 UTC)

Sääennuste

Ennuste voimassa 19. päivästä klo 18 UTC - 20. päivään klo 18 UTC
Tuuli 8 kn koillisesta
Näkyvyys 10 km tai enemmän
Muutamia pilviä 1200 ft:n korkeudessa
Hajonneita pilviä 2500 ft:n korkeudessa
Tulossa
19. päivästä klo 18 UTC - 19. päivään klo 21 UTC
Tuuli 12 kn idästä/kaakosta

TAF: ENSB 1918/2018 04008KT 9999 FEW012 BKN025 BECMG 1918/1921 12012KT

Säähavainnot ja -ennusteet yli 4000 lentoasemalta (METAR- ja TAF-raportit).

Käytössä olevat sääasemat on merkitty karttaan keltaisilla ja punaisilla pisteillä.

Aseta hiiri pisteen päälle nähdäksesi sääaseman nimen.

Klikkaa sitten nähdäksesi säähavainnot ja -ennusteet.

Kartan vaihtaminen: klikkaa mustalla rastilla varustettuja vihreitä pisteitä, niin voit zoomata sisään; viivalla varustettua vihreää pistettä, niin voit zoomata ulos tai vihreitä nuolia, niin pääset viereisille kartoille.


METAR-TAF: